createdAt,value
2023-03-02T00:00:43.037Z,-1.11
2023-03-02T00:05:56.309Z,-1.21
2023-03-02T00:11:02.500Z,-1.38
2023-03-02T00:16:09.708Z,-1.52
2023-03-02T00:21:15.409Z,-1.60
2023-03-02T00:26:21.429Z,-1.60
2023-03-02T00:31:27.494Z,-1.53
2023-03-02T00:36:33.633Z,-1.50
2023-03-02T00:41:39.393Z,-1.54
2023-03-02T00:46:45.528Z,-1.69
2023-03-02T00:51:51.268Z,-1.89
2023-03-02T00:56:57.368Z,-2.09
2023-03-02T01:02:04.271Z,-2.26
2023-03-02T01:07:12.726Z,-2.36
2023-03-02T01:12:18.643Z,-2.34
2023-03-02T01:17:25.334Z,-2.22
2023-03-02T01:22:30.887Z,-2.11
2023-03-02T01:27:37.037Z,-2.16
2023-03-02T01:32:42.811Z,-2.18
2023-03-02T01:37:48.642Z,-2.10
2023-03-02T01:43:02.559Z,-1.92
2023-03-02T01:48:11.175Z,-1.68
2023-03-02T01:53:18.820Z,-1.41
2023-03-02T01:58:25.777Z,-1.20
2023-03-02T02:03:32.385Z,-1.05
2023-03-02T02:08:39.272Z,-0.91
2023-03-02T02:13:46.153Z,-0.78
2023-03-02T02:18:52.661Z,-0.63
2023-03-02T02:24:07.646Z,-0.46
2023-03-02T02:29:19.040Z,-0.29
2023-03-02T02:34:30.656Z,-0.19
2023-03-02T02:39:40.835Z,-0.12
2023-03-02T02:44:47.201Z,-0.02
2023-03-02T02:49:54.844Z,0.14
2023-03-02T02:55:00.911Z,0.26
2023-03-02T03:00:15.108Z,0.27
2023-03-02T03:05:20.869Z,0.23
2023-03-02T03:10:35.087Z,0.22
2023-03-02T03:15:41.092Z,0.24
2023-03-02T03:20:46.841Z,0.28
2023-03-02T03:25:52.652Z,0.26
2023-03-02T03:30:58.879Z,0.25
2023-03-02T03:36:06.126Z,0.32
2023-03-02T03:41:13.091Z,0.32
2023-03-02T03:46:19.624Z,0.37
2023-03-02T03:51:26.551Z,0.40
2023-03-02T03:56:36.344Z,0.39
2023-03-02T04:01:45.690Z,0.33
2023-03-02T04:06:52.856Z,0.35
2023-03-02T04:12:00.367Z,0.42
2023-03-02T04:17:07.573Z,0.43
2023-03-02T04:22:20.041Z,0.44
2023-03-02T04:27:26.346Z,0.40
2023-03-02T04:32:32.790Z,0.34
2023-03-02T04:37:39.629Z,0.33
2023-03-02T04:42:47.242Z,0.42
2023-03-02T04:47:53.199Z,0.51
2023-03-02T04:52:59.804Z,0.56
2023-03-02T04:58:06.809Z,0.53
2023-03-02T05:03:13.262Z,0.48
2023-03-02T05:08:19.255Z,0.46
2023-03-02T05:13:25.634Z,0.55
2023-03-02T05:18:31.532Z,0.64
2023-03-02T05:23:37.831Z,0.62
2023-03-02T05:28:44.110Z,0.54
2023-03-02T05:33:49.921Z,0.54
2023-03-02T05:38:56.250Z,0.58
2023-03-02T05:44:02.702Z,0.59
2023-03-02T05:49:08.628Z,0.56
2023-03-02T05:54:16.185Z,0.59
2023-03-02T05:59:21.817Z,0.68
2023-03-02T06:04:28.145Z,0.72
2023-03-02T06:09:34.290Z,0.72
2023-03-02T06:14:42.353Z,0.72
2023-03-02T06:19:48.240Z,0.68
2023-03-02T06:24:57.587Z,0.73
2023-03-02T06:30:03.821Z,0.79
2023-03-02T06:35:11.335Z,0.88
2023-03-02T06:40:18.021Z,0.90
2023-03-02T06:45:24.679Z,0.86
2023-03-02T06:50:31.048Z,0.88
2023-03-02T06:55:37.612Z,0.93
2023-03-02T07:00:44.091Z,0.92
2023-03-02T07:05:52.210Z,0.91
2023-03-02T07:10:59.209Z,0.97
2023-03-02T07:16:11.577Z,1.01
2023-03-02T07:21:21.146Z,1.04
2023-03-02T07:26:28.083Z,1.07
2023-03-02T07:31:35.576Z,1.12
2023-03-02T07:36:42.963Z,1.22
2023-03-02T07:41:50.640Z,1.27
2023-03-02T07:47:01.069Z,1.33
2023-03-02T07:52:08.372Z,1.38
2023-03-02T07:57:16.501Z,1.50
2023-03-02T08:02:25.739Z,1.62
2023-03-02T08:07:32.456Z,1.69
2023-03-02T08:12:39.326Z,1.77
2023-03-02T08:17:45.705Z,1.89
2023-03-02T08:22:52.577Z,2.05
2023-03-02T08:27:59.748Z,2.15
2023-03-02T08:33:07.366Z,2.19
2023-03-02T08:38:13.769Z,2.30
2023-03-02T08:43:20.998Z,2.44
2023-03-02T08:48:28.996Z,2.60
2023-03-02T08:53:37.127Z,2.67
2023-03-02T08:58:43.516Z,2.77
2023-03-02T09:03:50.194Z,2.89
2023-03-02T09:08:56.708Z,2.98
2023-03-02T09:14:03.639Z,3.02
2023-03-02T09:19:09.963Z,3.08
2023-03-02T09:24:17.785Z,3.16
2023-03-02T09:29:23.672Z,3.20
2023-03-02T09:34:30.342Z,3.17
2023-03-02T09:39:37.629Z,3.05
2023-03-02T09:45:21.434Z,2.99
2023-03-02T09:50:33.822Z,2.97
2023-03-02T09:55:40.693Z,3.00
2023-03-02T10:00:48.154Z,2.99
2023-03-02T10:05:56.080Z,3.02
2023-03-02T10:11:12.206Z,3.09
2023-03-02T10:16:31.669Z,3.06
2023-03-02T10:21:43.103Z,2.93
2023-03-02T10:26:49.774Z,2.90
2023-03-02T10:32:04.188Z,2.83
2023-03-02T10:37:17.011Z,2.79
2023-03-02T10:42:28.830Z,2.84
2023-03-02T10:47:34.862Z,2.87
2023-03-02T10:52:59.483Z,2.86
2023-03-02T10:58:20.285Z,2.85
2023-03-02T11:03:27.600Z,2.91
2023-03-02T11:08:33.577Z,2.91
2023-03-02T11:13:41.298Z,2.88
2023-03-02T11:18:52.755Z,2.81
2023-03-02T11:24:06.040Z,2.77
2023-03-02T11:29:22.948Z,2.76
2023-03-02T11:34:34.953Z,2.82
2023-03-02T11:40:00.141Z,2.83
2023-03-02T11:45:20.960Z,2.90
2023-03-02T11:50:27.440Z,2.99
2023-03-02T11:55:39.787Z,2.99
2023-03-02T12:00:46.669Z,2.96
2023-03-02T12:06:06.063Z,3.01
2023-03-02T12:11:34.141Z,3.05
2023-03-02T12:16:41.738Z,3.09
2023-03-02T12:21:58.570Z,3.14
2023-03-02T12:27:09.561Z,3.25
2023-03-02T12:32:25.613Z,3.58
2023-03-02T12:37:38.526Z,3.96
2023-03-02T12:43:00.673Z,4.19
2023-03-02T12:48:24.149Z,4.28
2023-03-02T12:53:30.672Z,4.35
2023-03-02T12:58:37.105Z,4.41
2023-03-02T13:03:50.006Z,4.29
2023-03-02T13:08:59.142Z,4.23
2023-03-02T13:14:21.147Z,4.18
2023-03-02T13:19:30.778Z,4.11
2023-03-02T13:24:50.450Z,4.08
2023-03-02T13:30:08.750Z,4.08
2023-03-02T13:35:26.454Z,4.13
2023-03-02T13:40:42.886Z,4.13
2023-03-02T13:45:56.218Z,4.12
2023-03-02T13:51:14.497Z,4.10
2023-03-02T13:56:23.748Z,4.04
2023-03-02T14:01:30.575Z,3.98
2023-03-02T14:06:38.489Z,3.89
2023-03-02T14:11:49.920Z,3.79
2023-03-02T14:16:56.543Z,3.70
2023-03-02T14:22:03.657Z,3.69
2023-03-02T14:27:13.741Z,3.76
2023-03-02T14:32:21.852Z,3.84
2023-03-02T14:37:33.238Z,3.83
2023-03-02T14:42:41.357Z,3.83
2023-03-02T14:47:49.075Z,3.85
2023-03-02T14:52:58.099Z,3.83
2023-03-02T14:58:13.529Z,3.77
2023-03-02T15:03:25.653Z,3.72
2023-03-02T15:08:33.056Z,3.66
2023-03-02T15:13:38.961Z,3.52
2023-03-02T15:18:45.109Z,3.41
2023-03-02T15:23:51.651Z,3.29
2023-03-02T15:28:57.923Z,3.17
2023-03-02T15:34:04.078Z,3.06
2023-03-02T15:39:14.406Z,2.88
2023-03-02T15:44:23.093Z,2.78
2023-03-02T15:49:32.233Z,2.72
2023-03-02T15:54:38.110Z,2.62
2023-03-02T15:59:44.732Z,2.51
2023-03-02T16:04:51.097Z,2.20
2023-03-02T16:09:57.807Z,1.87
2023-03-02T16:15:04.401Z,1.48
2023-03-02T16:20:13.115Z,1.10
2023-03-02T16:25:19.551Z,0.74
2023-03-02T16:30:25.449Z,0.46
2023-03-02T16:35:33.299Z,0.15
2023-03-02T16:40:40.229Z,-0.22
2023-03-02T16:45:47.634Z,-0.49
2023-03-02T16:50:58.378Z,-0.67
2023-03-02T16:56:04.853Z,-0.82
2023-03-02T17:01:13.172Z,-0.97
2023-03-02T17:06:22.644Z,-1.10
2023-03-02T17:11:29.114Z,-1.30
2023-03-02T17:16:34.751Z,-1.44
2023-03-02T17:21:40.926Z,-1.59
2023-03-02T17:26:47.281Z,-1.76
2023-03-02T17:31:53.831Z,-1.85
2023-03-02T17:37:00.787Z,-1.94
2023-03-02T17:42:07.435Z,-2.01
2023-03-02T17:47:15.572Z,-2.02
2023-03-02T17:52:21.964Z,-1.94
2023-03-02T17:57:28.486Z,-1.88
2023-03-02T18:02:34.604Z,-1.90
2023-03-02T18:07:40.475Z,-1.97
2023-03-02T18:12:47.651Z,-2.08
2023-03-02T18:17:53.722Z,-2.23
2023-03-02T18:23:00.423Z,-2.37
2023-03-02T18:28:07.517Z,-2.50
2023-03-02T18:33:14.149Z,-2.60
2023-03-02T18:38:20.520Z,-2.63
2023-03-02T18:43:27.385Z,-2.56
2023-03-02T18:48:34.384Z,-2.46
2023-03-02T18:53:41.162Z,-2.41
2023-03-02T18:58:48.595Z,-2.44
2023-03-02T19:03:56.908Z,-2.53
2023-03-02T19:09:03.013Z,-2.63
2023-03-02T19:14:08.890Z,-2.71
2023-03-02T19:19:15.191Z,-2.81
2023-03-02T19:24:21.116Z,-2.89
2023-03-02T19:29:28.578Z,-2.84
2023-03-02T19:34:34.333Z,-2.70
2023-03-02T19:39:40.618Z,-2.65
2023-03-02T19:44:46.347Z,-2.68
2023-03-02T19:49:52.121Z,-2.72
2023-03-02T19:54:58.733Z,-2.79
2023-03-02T20:00:06.791Z,-2.90
2023-03-02T20:05:13.440Z,-3.01
2023-03-02T20:10:28.748Z,-3.12
2023-03-02T20:15:38.134Z,-3.20
2023-03-02T20:20:45.629Z,-3.19
2023-03-02T20:25:51.930Z,-3.12
2023-03-02T20:31:00.494Z,-3.07
2023-03-02T20:36:08.099Z,-3.07
2023-03-02T20:41:15.590Z,-3.11
2023-03-02T20:46:25.482Z,-3.20
2023-03-02T20:51:32.469Z,-3.34
2023-03-02T20:56:38.357Z,-3.49
2023-03-02T21:01:44.979Z,-3.62
2023-03-02T21:06:51.619Z,-3.67
2023-03-02T21:11:58.942Z,-3.66
2023-03-02T21:17:05.625Z,-3.56
2023-03-02T21:22:11.519Z,-3.42
2023-03-02T21:27:17.480Z,-3.38
2023-03-02T21:32:23.330Z,-3.42
2023-03-02T21:37:29.018Z,-3.50
2023-03-02T21:42:34.846Z,-3.63
2023-03-02T21:47:41.513Z,-3.77
2023-03-02T21:52:47.152Z,-3.88
2023-03-02T21:57:52.851Z,-3.93
2023-03-02T22:02:58.728Z,-3.86
2023-03-02T22:08:04.620Z,-3.77
2023-03-02T22:13:21.993Z,-3.68
2023-03-02T22:18:28.578Z,-3.68
2023-03-02T22:23:34.562Z,-3.69
2023-03-02T22:28:41.844Z,-3.80
2023-03-02T22:33:48.374Z,-3.93
2023-03-02T22:38:56.800Z,-4.04
2023-03-02T22:44:03.157Z,-4.14
2023-03-02T22:49:16.420Z,-4.19
2023-03-02T22:54:30.900Z,-4.19
2023-03-02T22:59:38.738Z,-4.13
2023-03-02T23:04:45.579Z,-4.06
2023-03-02T23:09:51.401Z,-3.95
2023-03-02T23:14:59.090Z,-3.90
2023-03-02T23:20:13.045Z,-3.93
2023-03-02T23:25:19.463Z,-3.96
2023-03-02T23:30:25.682Z,-3.99
2023-03-02T23:35:31.478Z,-4.09
2023-03-02T23:40:37.581Z,-4.20
2023-03-02T23:45:43.500Z,-4.27
2023-03-02T23:50:49.411Z,-4.29
2023-03-02T23:55:56.266Z,-4.20
